createdAt,value
2022-08-05T00:04:18.927Z,6.35
2022-08-05T00:06:47.059Z,7.13
2022-08-05T00:09:15.686Z,7.50
2022-08-05T00:11:49.002Z,6.82
2022-08-05T00:14:28.967Z,8.50
2022-08-05T00:16:56.280Z,6.97
2022-08-05T00:19:24.727Z,6.65
2022-08-05T00:21:59.980Z,5.40
2022-08-05T00:24:30.994Z,5.95
2022-08-05T00:26:59.919Z,8.35
2022-08-05T00:29:37.932Z,7.97
2022-08-05T00:32:12.262Z,7.30
2022-08-05T00:35:05.780Z,8.00
2022-08-05T00:37:35.777Z,9.25
2022-08-05T00:40:27.345Z,8.90
2022-08-05T00:43:01.011Z,6.28
2022-08-05T00:45:43.138Z,5.93
2022-08-05T00:48:13.526Z,8.52
2022-08-05T00:50:44.127Z,9.82
2022-08-05T00:53:45.070Z,7.55
2022-08-05T00:55:59.200Z,9.52
2022-08-05T00:58:27.725Z,6.82
2022-08-05T01:00:55.457Z,8.02
2022-08-05T01:03:23.515Z,5.72
2022-08-05T01:05:51.638Z,7.43
2022-08-05T01:08:41.774Z,6.20
2022-08-05T01:11:13.962Z,7.82
2022-08-05T01:14:02.798Z,7.25
2022-08-05T01:16:38.597Z,7.25
2022-08-05T01:19:56.041Z,8.15
2022-08-05T01:22:29.393Z,6.80
2022-08-05T01:25:14.242Z,7.85
2022-08-05T01:28:07.050Z,8.63
2022-08-05T01:30:40.104Z,9.10
2022-08-05T01:33:21.942Z,6.65
2022-08-05T01:35:57.486Z,8.32
2022-08-05T01:38:30.180Z,9.90
2022-08-05T01:41:01.303Z,8.35
2022-08-05T01:43:29.947Z,8.00
2022-08-05T01:45:57.918Z,11.07
2022-08-05T01:48:30.560Z,6.97
2022-08-05T01:51:00.158Z,10.68
2022-08-05T01:53:55.017Z,6.03
2022-08-05T01:58:10.296Z,9.02
2022-08-05T01:59:20.950Z,6.82
2022-08-05T02:01:52.126Z,8.40
2022-08-05T02:04:24.295Z,8.75
2022-08-05T02:06:53.107Z,6.80
2022-08-05T02:09:20.544Z,6.57
2022-08-05T02:12:06.160Z,7.65
2022-08-05T02:14:43.321Z,7.95
2022-08-05T02:18:12.509Z,7.65
2022-08-05T02:20:20.490Z,8.23
2022-08-05T02:22:56.769Z,8.45
2022-08-05T02:25:33.285Z,10.35
2022-08-05T02:28:08.644Z,6.93
2022-08-05T02:30:51.689Z,6.47
2022-08-05T02:33:24.532Z,13.65
2022-08-05T02:36:05.114Z,9.38
2022-08-05T02:38:35.390Z,7.57
2022-08-05T02:41:14.535Z,7.45
2022-08-05T02:44:02.640Z,8.05
2022-08-05T02:46:53.428Z,8.32
2022-08-05T02:49:35.842Z,7.50
2022-08-05T02:52:09.334Z,10.77
2022-08-05T02:54:41.200Z,9.52
2022-08-05T02:58:11.078Z,6.90
2022-08-05T02:59:59.839Z,7.43
2022-08-05T03:02:38.391Z,6.65
2022-08-05T03:05:09.384Z,8.70
2022-08-05T03:07:59.449Z,9.30
2022-08-05T03:10:26.511Z,8.68
2022-08-05T03:12:54.446Z,7.10
2022-08-05T03:15:24.343Z,8.43
2022-08-05T03:17:58.151Z,9.10
2022-08-05T03:20:27.318Z,10.10
2022-08-05T03:22:57.677Z,7.32
2022-08-05T03:25:33.079Z,7.93
2022-08-05T03:28:14.674Z,6.53
2022-08-05T03:30:48.733Z,8.20
2022-08-05T03:33:17.036Z,7.13
2022-08-05T03:35:49.776Z,8.73
2022-08-05T03:38:17.228Z,9.25
2022-08-05T03:40:59.964Z,8.73
2022-08-05T03:44:08.498Z,8.27
2022-08-05T03:46:18.320Z,9.18
2022-08-05T03:48:46.789Z,8.80
2022-08-05T03:52:48.778Z,6.70
2022-08-05T03:55:50.601Z,8.15
2022-08-05T03:57:16.736Z,8.70
2022-08-05T03:59:54.794Z,9.10
2022-08-05T04:02:37.952Z,7.63
2022-08-05T04:05:09.851Z,7.72
2022-08-05T04:07:57.430Z,7.78
2022-08-05T04:10:37.583Z,7.40
2022-08-05T04:13:08.135Z,8.85
2022-08-05T04:15:36.610Z,9.55
2022-08-05T04:18:09.372Z,7.63
2022-08-05T04:20:38.021Z,8.23
2022-08-05T04:23:12.606Z,7.90
2022-08-05T04:26:00.180Z,7.53
2022-08-05T04:28:30.790Z,6.13
2022-08-05T04:31:01.098Z,6.45
2022-08-05T04:33:54.468Z,8.68
2022-08-05T04:36:44.652Z,6.45
2022-08-05T04:39:04.351Z,7.85
2022-08-05T04:41:37.901Z,7.20
2022-08-05T04:44:09.041Z,8.82
2022-08-05T04:46:37.792Z,9.30
2022-08-05T04:49:12.428Z,8.50
2022-08-05T04:51:44.235Z,7.40
2022-08-05T04:54:12.130Z,6.03
2022-08-05T04:56:40.130Z,9.13
2022-08-05T04:59:22.460Z,5.93
2022-08-05T05:02:07.505Z,8.05
2022-08-05T05:04:47.922Z,8.60
2022-08-05T05:07:18.309Z,6.22
2022-08-05T05:09:52.350Z,6.80
2022-08-05T05:12:21.038Z,6.18
2022-08-05T05:14:51.359Z,6.63
2022-08-05T05:17:23.823Z,6.47
2022-08-05T05:19:54.975Z,7.18
2022-08-05T05:22:26.312Z,7.05
2022-08-05T05:24:57.134Z,8.02
2022-08-05T05:27:41.361Z,7.18
2022-08-05T05:30:29.433Z,5.75
2022-08-05T05:33:03.890Z,6.05
2022-08-05T05:35:44.960Z,9.45
2022-08-05T05:38:12.906Z,7.10
2022-08-05T05:40:49.566Z,7.43
2022-08-05T05:43:22.229Z,6.53
2022-08-05T05:46:05.483Z,8.63
2022-08-05T05:48:37.961Z,6.32
2022-08-05T05:51:15.848Z,7.78
2022-08-05T05:53:54.222Z,6.63
2022-08-05T05:56:32.782Z,7.82
2022-08-05T05:59:06.691Z,8.80
2022-08-05T06:01:40.308Z,6.07
2022-08-05T06:04:14.728Z,4.78
2022-08-05T06:06:47.627Z,7.35
2022-08-05T06:09:25.662Z,6.72
2022-08-05T06:12:03.002Z,5.28
2022-08-05T06:14:31.251Z,4.80
2022-08-05T06:16:59.083Z,8.82
2022-08-05T06:19:35.346Z,3.72
2022-08-05T06:22:07.079Z,5.82
2022-08-05T06:24:35.371Z,3.80
2022-08-05T06:27:03.911Z,3.83
2022-08-05T06:29:49.047Z,4.25
2022-08-05T06:32:25.128Z,4.90
2022-08-05T06:34:59.261Z,3.47
2022-08-05T06:37:56.446Z,5.20
2022-08-05T06:40:18.582Z,3.92
2022-08-05T06:42:51.983Z,3.58
2022-08-05T06:46:02.891Z,10.32
2022-08-05T06:48:36.593Z,4.03
2022-08-05T06:50:56.317Z,5.20
2022-08-05T06:53:28.417Z,4.25
2022-08-05T06:56:00.965Z,5.00
2022-08-05T06:58:29.965Z,4.07
2022-08-05T07:01:04.879Z,5.45
2022-08-05T07:03:33.883Z,3.65
2022-08-05T07:06:05.799Z,4.05
2022-08-05T07:08:43.048Z,3.78
2022-08-05T07:11:15.970Z,5.38
2022-08-05T07:14:02.380Z,4.35
2022-08-05T07:17:57.299Z,3.63
2022-08-05T07:22:28.185Z,3.83
2022-08-05T07:24:59.408Z,4.28
2022-08-05T07:27:27.554Z,3.67
2022-08-05T07:30:24.260Z,2.83
2022-08-05T07:32:55.472Z,6.00
2022-08-05T07:36:04.715Z,3.77
2022-08-05T07:38:32.421Z,2.85
2022-08-05T07:41:04.470Z,4.18
2022-08-05T07:43:46.739Z,2.63
2022-08-05T07:46:25.265Z,3.60
2022-08-05T07:49:02.590Z,2.80
2022-08-05T07:51:37.581Z,5.57
2022-08-05T07:54:09.711Z,4.68
2022-08-05T07:57:00.691Z,3.30
2022-08-05T07:59:39.047Z,4.95
2022-08-05T08:02:16.095Z,3.70
2022-08-05T08:04:49.223Z,6.80
2022-08-05T08:07:18.888Z,3.60
2022-08-05T08:09:52.422Z,3.28
2022-08-05T08:12:35.331Z,3.83
2022-08-05T08:15:15.323Z,3.25
2022-08-05T08:17:52.435Z,3.08
2022-08-05T08:20:44.087Z,3.63
2022-08-05T08:23:59.993Z,4.95
2022-08-05T08:26:02.455Z,4.80
2022-08-05T08:28:35.625Z,2.75
2022-08-05T08:31:07.874Z,4.25
2022-08-05T08:33:37.670Z,3.83
2022-08-05T08:38:56.143Z,3.20
2022-08-05T08:41:51.737Z,4.72
2022-08-05T08:45:22.264Z,2.22
2022-08-05T08:47:47.332Z,4.38
2022-08-05T08:50:07.690Z,3.92
2022-08-05T08:52:47.402Z,4.78
2022-08-05T08:56:02.739Z,6.10
2022-08-05T08:58:08.665Z,5.13
2022-08-05T09:00:36.490Z,6.22
2022-08-05T09:03:06.965Z,3.50
2022-08-05T09:05:38.798Z,5.63
2022-08-05T09:08:27.357Z,4.53
2022-08-05T09:10:55.026Z,5.47
2022-08-05T09:13:23.648Z,3.85
2022-08-05T09:15:51.951Z,11.10
2022-08-05T09:18:19.112Z,3.55
2022-08-05T09:20:47.348Z,3.85
2022-08-05T09:23:21.960Z,3.13
2022-08-05T09:26:02.156Z,4.50
2022-08-05T09:28:33.792Z,4.80
2022-08-05T09:31:23.000Z,5.25
2022-08-05T09:34:03.164Z,6.45
2022-08-05T09:36:56.327Z,4.07
2022-08-05T09:39:41.859Z,5.07
2022-08-05T09:42:23.309Z,3.80
2022-08-05T09:44:56.151Z,2.83
2022-08-05T09:47:29.684Z,4.45
2022-08-05T09:52:45.943Z,3.13
2022-08-05T09:55:56.369Z,3.85
2022-08-05T09:58:00.660Z,5.80
2022-08-05T10:00:29.636Z,6.75
2022-08-05T10:02:58.828Z,3.30
2022-08-05T10:05:32.730Z,6.10
2022-08-05T10:08:35.879Z,4.50
2022-08-05T10:10:50.270Z,6.85
2022-08-05T10:13:31.571Z,5.28
2022-08-05T10:16:34.335Z,3.78
2022-08-05T10:19:10.232Z,6.45
2022-08-05T10:24:13.781Z,3.10
2022-08-05T10:26:51.169Z,4.32
2022-08-05T10:30:05.758Z,3.78
2022-08-05T10:32:52.112Z,2.80
2022-08-05T10:35:00.832Z,5.93
2022-08-05T10:37:40.337Z,4.78
2022-08-05T10:40:43.469Z,4.45
2022-08-05T10:43:17.694Z,7.40
2022-08-05T10:46:06.337Z,3.65
2022-08-05T10:48:52.848Z,7.25
2022-08-05T10:51:29.177Z,4.43
2022-08-05T10:54:01.586Z,3.78
2022-08-05T10:56:53.550Z,5.15
2022-08-05T11:00:04.211Z,5.75
2022-08-05T11:02:38.518Z,5.90
2022-08-05T11:05:06.875Z,3.13
2022-08-05T11:08:02.477Z,3.95
2022-08-05T11:10:27.414Z,5.43
2022-08-05T11:12:56.829Z,3.72
2022-08-05T11:15:58.971Z,5.07
2022-08-05T11:18:14.574Z,4.07
2022-08-05T11:20:46.261Z,15.50
2022-08-05T11:24:04.139Z,4.10
2022-08-05T11:26:34.240Z,5.13
2022-08-05T11:29:12.359Z,3.33
2022-08-05T11:31:54.172Z,4.28
2022-08-05T11:34:50.767Z,6.00
2022-08-05T11:38:28.579Z,3.75
2022-08-05T11:41:14.071Z,4.50
2022-08-05T11:44:07.245Z,6.18
2022-08-05T11:47:09.807Z,5.05
2022-08-05T11:49:25.319Z,4.07
2022-08-05T11:51:57.386Z,4.63
2022-08-05T11:54:32.718Z,4.45
2022-08-05T11:57:08.643Z,8.20
2022-08-05T11:59:50.150Z,4.82
2022-08-05T12:02:29.919Z,5.78
2022-08-05T12:05:00.700Z,3.42
2022-08-05T12:08:08.457Z,3.22
2022-08-05T12:10:24.857Z,7.00
2022-08-05T12:13:17.352Z,6.00
2022-08-05T12:15:53.066Z,4.93
2022-08-05T12:18:38.969Z,5.45
2022-08-05T12:21:15.166Z,4.47
2022-08-05T12:23:54.597Z,4.22
2022-08-05T12:26:23.225Z,4.20
2022-08-05T12:28:51.467Z,3.88
2022-08-05T12:31:23.705Z,5.32
2022-08-05T12:34:07.516Z,5.50
2022-08-05T12:36:37.199Z,5.82
2022-08-05T12:39:07.006Z,4.72
2022-08-05T12:41:36.465Z,3.23
2022-08-05T12:44:21.769Z,5.55
2022-08-05T12:47:01.799Z,4.03
2022-08-05T12:50:04.747Z,4.20
2022-08-05T12:52:38.823Z,6.63
2022-08-05T12:55:22.689Z,7.45
2022-08-05T12:58:50.693Z,4.40
2022-08-05T13:02:03.284Z,6.88
2022-08-05T13:03:32.895Z,5.05
2022-08-05T13:06:01.844Z,4.90
2022-08-05T13:08:33.064Z,3.05
2022-08-05T13:11:04.090Z,3.40
2022-08-05T13:14:04.608Z,4.30
2022-08-05T13:16:20.397Z,6.97
2022-08-05T13:18:58.553Z,7.95
2022-08-05T13:21:28.542Z,3.65
2022-08-05T13:24:08.751Z,3.20
2022-08-05T13:26:36.422Z,3.00
2022-08-05T13:29:05.253Z,4.85
2022-08-05T13:32:03.330Z,8.13
2022-08-05T13:34:25.975Z,5.20
2022-08-05T13:36:54.340Z,8.50
2022-08-05T13:39:24.366Z,3.55
2022-08-05T13:42:14.364Z,3.97
2022-08-05T13:44:46.070Z,5.32
2022-08-05T13:47:34.919Z,4.53
2022-08-05T13:50:06.592Z,4.95
2022-08-05T13:52:36.913Z,6.65
2022-08-05T13:55:07.335Z,3.85
2022-08-05T13:57:51.530Z,5.30
2022-08-05T14:00:27.165Z,3.25
2022-08-05T14:02:56.971Z,4.38
2022-08-05T14:05:48.446Z,4.47
2022-08-05T14:08:20.398Z,5.97
2022-08-05T14:11:03.209Z,7.80
2022-08-05T14:13:41.931Z,6.72
2022-08-05T14:16:11.025Z,4.30
2022-08-05T14:18:39.158Z,2.72
2022-08-05T14:22:09.439Z,6.38
2022-08-05T14:23:54.117Z,3.67
2022-08-05T14:26:35.462Z,4.85
2022-08-05T14:29:16.205Z,3.97
2022-08-05T14:32:03.859Z,4.75
2022-08-05T14:34:35.404Z,3.50
2022-08-05T14:37:04.581Z,7.30
2022-08-05T14:39:49.441Z,3.30
2022-08-05T14:42:20.937Z,5.85
2022-08-05T14:44:49.850Z,4.05
2022-08-05T14:47:17.558Z,3.80
2022-08-05T14:50:17.166Z,5.90
2022-08-05T14:52:53.025Z,3.63
2022-08-05T14:55:20.990Z,3.17
2022-08-05T14:57:54.632Z,11.95
2022-08-05T15:00:28.090Z,7.10
2022-08-05T15:02:57.074Z,3.85
2022-08-05T15:05:29.544Z,3.47
2022-08-05T15:08:13.202Z,4.18
2022-08-05T15:10:46.051Z,5.90
2022-08-05T15:13:14.591Z,5.47
2022-08-05T15:15:55.552Z,4.32
2022-08-05T15:18:25.181Z,3.58
2022-08-05T15:20:52.190Z,6.70
2022-08-05T15:23:19.830Z,6.55
2022-08-05T15:25:53.303Z,4.53
2022-08-05T15:28:27.030Z,6.95
2022-08-05T15:30:55.236Z,5.28
2022-08-05T15:34:05.686Z,4.63
2022-08-05T15:36:17.422Z,5.63
2022-08-05T15:41:04.792Z,5.32
2022-08-05T15:41:56.143Z,3.42
2022-08-05T15:44:27.415Z,4.00
2022-08-05T15:46:55.700Z,7.80
2022-08-05T15:49:40.950Z,4.65
2022-08-05T15:52:16.385Z,5.30
2022-08-05T15:54:44.412Z,7.72
2022-08-05T15:57:14.020Z,5.10
2022-08-05T15:59:41.272Z,4.07
2022-08-05T16:02:09.562Z,6.93
2022-08-05T16:04:42.409Z,3.38
2022-08-05T16:07:10.785Z,4.18
2022-08-05T16:09:41.518Z,6.63
2022-08-05T16:12:09.416Z,6.57
2022-08-05T16:14:38.709Z,6.35
2022-08-05T16:17:05.881Z,8.85
2022-08-05T16:20:04.553Z,9.30
2022-08-05T16:22:27.528Z,6.40
2022-08-05T16:25:01.079Z,4.40
2022-08-05T16:28:00.152Z,8.13
2022-08-05T16:30:26.038Z,7.65
2022-08-05T16:32:54.391Z,5.03
2022-08-05T16:35:27.957Z,4.63
2022-08-05T16:38:14.886Z,5.13
2022-08-05T16:40:52.001Z,4.30
2022-08-05T16:43:26.550Z,6.03
2022-08-05T16:46:04.377Z,3.90
2022-08-05T16:48:38.538Z,4.50
2022-08-05T16:51:09.677Z,5.10
2022-08-05T16:54:03.141Z,4.50
2022-08-05T16:56:27.416Z,6.45
2022-08-05T16:58:54.598Z,5.40
2022-08-05T17:01:22.415Z,6.97
2022-08-05T17:03:52.251Z,6.57
2022-08-05T17:06:20.671Z,5.93
2022-08-05T17:08:54.362Z,6.07
2022-08-05T17:11:25.931Z,6.65
2022-08-05T17:14:05.671Z,6.10
2022-08-05T17:16:38.420Z,6.05
2022-08-05T17:19:07.601Z,5.85
2022-08-05T17:21:37.700Z,5.30
2022-08-05T17:24:19.778Z,6.85
2022-08-05T17:26:57.883Z,6.03
2022-08-05T17:29:40.004Z,6.65
2022-08-05T17:32:11.798Z,6.05
2022-08-05T17:34:47.546Z,11.38
2022-08-05T17:37:40.824Z,5.43
2022-08-05T17:40:10.297Z,6.87
2022-08-05T17:42:43.175Z,7.57
2022-08-05T17:45:21.039Z,5.50
2022-08-05T17:47:53.836Z,13.18
2022-08-05T17:50:28.090Z,13.60
2022-08-05T17:52:59.273Z,13.27
2022-08-05T17:55:27.331Z,11.80
2022-08-05T17:58:02.346Z,17.83
2022-08-05T18:00:30.439Z,18.00
2022-08-05T18:02:58.108Z,7.07
2022-08-05T18:05:27.910Z,10.77
2022-08-05T18:07:56.901Z,11.25
2022-08-05T18:10:24.259Z,9.60
2022-08-05T18:12:52.040Z,11.50
2022-08-05T18:15:19.514Z,12.20
2022-08-05T18:17:59.026Z,11.13
2022-08-05T18:20:31.641Z,8.27
2022-08-05T18:23:09.280Z,8.98
2022-08-05T18:25:45.319Z,8.02
2022-08-05T18:28:16.597Z,10.15
2022-08-05T18:30:51.370Z,9.45
2022-08-05T18:33:22.796Z,8.23
2022-08-05T18:36:04.284Z,7.13
2022-08-05T18:38:36.102Z,6.55
2022-08-05T18:41:53.681Z,6.85
2022-08-05T18:43:55.039Z,7.40
2022-08-05T18:46:25.882Z,6.28
2022-08-05T18:48:56.321Z,6.78
2022-08-05T18:52:03.341Z,6.53
2022-08-05T18:54:31.959Z,7.72
2022-08-05T18:57:00.954Z,9.45
2022-08-05T18:59:44.082Z,5.88
2022-08-05T19:02:26.980Z,7.20
2022-08-05T19:05:02.167Z,6.68
2022-08-05T19:07:50.294Z,6.82
2022-08-05T19:10:26.447Z,6.60
2022-08-05T19:12:54.460Z,7.13
2022-08-05T19:15:57.648Z,6.68
2022-08-05T19:18:13.394Z,5.03
2022-08-05T19:20:49.561Z,4.57
2022-08-05T19:24:03.604Z,8.48
2022-08-05T19:26:04.020Z,8.57
2022-08-05T19:28:32.786Z,5.65
2022-08-05T19:31:04.893Z,5.60
2022-08-05T19:33:36.787Z,6.47
2022-08-05T19:36:06.774Z,7.85
2022-08-05T19:41:07.003Z,8.90
2022-08-05T19:44:06.954Z,11.05
2022-08-05T19:46:30.128Z,9.23
2022-08-05T19:49:05.599Z,8.85
2022-08-05T19:52:09.080Z,8.98
2022-08-05T19:54:29.568Z,7.97
2022-08-05T19:57:09.238Z,8.70
2022-08-05T19:59:56.429Z,6.80
2022-08-05T20:02:31.332Z,8.57
2022-08-05T20:04:59.878Z,8.48
2022-08-05T20:07:47.416Z,8.02
2022-08-05T20:10:17.355Z,9.95
2022-08-05T20:12:49.341Z,6.53
2022-08-05T20:15:48.367Z,6.45
2022-08-05T20:18:10.354Z,7.53
2022-08-05T20:20:57.320Z,6.30
2022-08-05T20:23:39.569Z,8.77
2022-08-05T20:26:16.635Z,6.57
2022-08-05T20:28:48.244Z,7.63
2022-08-05T20:31:16.479Z,7.15
2022-08-05T20:33:45.257Z,9.65
2022-08-05T20:36:14.331Z,7.30
2022-08-05T20:38:53.265Z,8.57
2022-08-05T20:41:27.137Z,6.43
2022-08-05T20:44:17.641Z,6.45
2022-08-05T20:46:48.216Z,6.10
2022-08-05T20:49:18.458Z,9.35
2022-08-05T20:51:53.514Z,6.72
2022-08-05T20:54:26.081Z,6.55
2022-08-05T20:57:14.341Z,5.07
2022-08-05T20:59:46.152Z,6.35
2022-08-05T21:02:30.800Z,7.03
2022-08-05T21:04:57.951Z,5.15
2022-08-05T21:07:50.870Z,4.63
2022-08-05T21:10:17.310Z,6.22
2022-08-05T21:12:57.953Z,7.45
2022-08-05T21:15:33.717Z,7.90
2022-08-05T21:18:02.419Z,9.60
2022-08-05T21:20:33.270Z,6.45
2022-08-05T21:23:01.281Z,9.70
2022-08-05T21:25:33.745Z,7.93
2022-08-05T21:28:03.508Z,8.73
2022-08-05T21:30:31.769Z,9.67
2022-08-05T21:33:01.794Z,12.35
2022-08-05T21:35:43.626Z,11.87
2022-08-05T21:38:17.541Z,9.18
2022-08-05T21:40:45.262Z,11.25
2022-08-05T21:43:17.695Z,11.52
2022-08-05T21:45:57.624Z,11.10
2022-08-05T21:48:29.601Z,11.45
2022-08-05T21:50:59.131Z,12.32
2022-08-05T21:53:27.164Z,9.93
2022-08-05T21:56:05.924Z,10.55
2022-08-05T21:58:48.256Z,11.48
2022-08-05T22:01:26.434Z,11.25
2022-08-05T22:03:54.126Z,17.90
2022-08-05T22:06:35.382Z,9.68
2022-08-05T22:09:13.887Z,11.70
2022-08-05T22:11:46.740Z,9.13
2022-08-05T22:14:35.471Z,10.10
2022-08-05T22:17:06.696Z,10.50
2022-08-05T22:20:03.358Z,10.40
2022-08-05T22:22:27.731Z,9.85
2022-08-05T22:25:21.293Z,8.18
2022-08-05T22:28:08.177Z,8.80
2022-08-05T22:30:55.578Z,10.30
2022-08-05T22:33:57.106Z,8.40
2022-08-05T22:36:16.044Z,10.02
2022-08-05T22:38:47.999Z,8.73
2022-08-05T22:42:04.164Z,8.65
2022-08-05T22:44:05.088Z,10.18
2022-08-05T22:46:32.739Z,8.05
2022-08-05T22:49:00.349Z,8.40
2022-08-05T22:52:02.966Z,9.05
2022-08-05T22:54:15.148Z,7.43
2022-08-05T22:56:43.147Z,8.73
2022-08-05T22:59:45.160Z,7.82
2022-08-05T23:02:06.231Z,8.23
2022-08-05T23:04:34.668Z,6.10
2022-08-05T23:07:02.367Z,6.25
2022-08-05T23:09:57.373Z,7.82
2022-08-05T23:12:18.249Z,7.38
2022-08-05T23:14:45.911Z,8.57
2022-08-05T23:17:35.106Z,6.60
2022-08-05T23:20:17.911Z,8.20
2022-08-05T23:25:51.725Z,8.68
2022-08-05T23:28:06.926Z,6.80
2022-08-05T23:30:40.381Z,7.03
2022-08-05T23:33:22.229Z,7.85
2022-08-05T23:35:56.003Z,5.63
2022-08-05T23:38:26.161Z,8.02
2022-08-05T23:40:54.039Z,9.43
2022-08-05T23:43:25.245Z,10.40
2022-08-05T23:46:20.579Z,7.30
2022-08-05T23:48:59.710Z,6.03
2022-08-05T23:54:26.756Z,9.88
2022-08-05T23:57:03.626Z,8.20
